sensor_id;sensor_type;location;lat;lon;timestamp;P1;durP1;ratioP1;P2;durP2;ratioP2
5147;SDS011;2592;48.140;7.614;2024-03-02T00:01:57;8.53;;;6.67;;
5147;SDS011;2592;48.140;7.614;2024-03-02T00:04:24;9.20;;;7.47;;
5147;SDS011;2592;48.140;7.614;2024-03-02T00:06:51;8.70;;;6.83;;
5147;SDS011;2592;48.140;7.614;2024-03-02T00:09:17;11.63;;;7.37;;
5147;SDS011;2592;48.140;7.614;2024-03-02T00:11:44;11.33;;;7.30;;
5147;SDS011;2592;48.140;7.614;2024-03-02T00:14:11;10.13;;;8.13;;
5147;SDS011;2592;48.140;7.614;2024-03-02T00:16:39;14.20;;;8.80;;
5147;SDS011;2592;48.140;7.614;2024-03-02T00:19:05;11.20;;;8.60;;
5147;SDS011;2592;48.140;7.614;2024-03-02T00:21:33;9.07;;;7.80;;
5147;SDS011;2592;48.140;7.614;2024-03-02T00:23:59;12.90;;;8.77;;
5147;SDS011;2592;48.140;7.614;2024-03-02T00:26:27;13.50;;;9.80;;
5147;SDS011;2592;48.140;7.614;2024-03-02T00:28:54;12.13;;;9.07;;
5147;SDS011;2592;48.140;7.614;2024-03-02T00:31:22;12.63;;;9.33;;
5147;SDS011;2592;48.140;7.614;2024-03-02T00:33:49;13.00;;;10.20;;
5147;SDS011;2592;48.140;7.614;2024-03-02T00:36:16;14.37;;;10.40;;
5147;SDS011;2592;48.140;7.614;2024-03-02T00:38:47;15.30;;;10.73;;
5147;SDS011;2592;48.140;7.614;2024-03-02T00:41:19;19.13;;;13.07;;
5147;SDS011;2592;48.140;7.614;2024-03-02T00:43:47;19.27;;;12.57;;
5147;SDS011;2592;48.140;7.614;2024-03-02T00:46:16;17.73;;;14.10;;
5147;SDS011;2592;48.140;7.614;2024-03-02T00:51:29;12.73;;;10.87;;
5147;SDS011;2592;48.140;7.614;2024-03-02T00:53:57;14.03;;;10.20;;
5147;SDS011;2592;48.140;7.614;2024-03-02T00:56:24;13.37;;;9.67;;
5147;SDS011;2592;48.140;7.614;2024-03-02T00:58:51;13.13;;;9.80;;
5147;SDS011;2592;48.140;7.614;2024-03-02T01:01:18;11.37;;;10.00;;
5147;SDS011;2592;48.140;7.614;2024-03-02T01:03:44;13.20;;;10.20;;
5147;SDS011;2592;48.140;7.614;2024-03-02T01:06:11;14.93;;;11.73;;
5147;SDS011;2592;48.140;7.614;2024-03-02T01:08:39;12.30;;;10.37;;
5147;SDS011;2592;48.140;7.614;2024-03-02T01:11:05;12.37;;;10.20;;
5147;SDS011;2592;48.140;7.614;2024-03-02T01:13:32;11.77;;;10.30;;
5147;SDS011;2592;48.140;7.614;2024-03-02T01:15:58;14.07;;;11.57;;
5147;SDS011;2592;48.140;7.614;2024-03-02T01:18:25;15.33;;;10.97;;
5147;SDS011;2592;48.140;7.614;2024-03-02T01:20:51;18.57;;;10.70;;
5147;SDS011;2592;48.140;7.614;2024-03-02T01:23:20;14.70;;;9.93;;
5147;SDS011;2592;48.140;7.614;2024-03-02T01:25:48;12.77;;;10.80;;
5147;SDS011;2592;48.140;7.614;2024-03-02T01:28:14;12.17;;;9.37;;
5147;SDS011;2592;48.140;7.614;2024-03-02T01:30:41;12.17;;;10.40;;
5147;SDS011;2592;48.140;7.614;2024-03-02T01:33:07;13.93;;;10.90;;
5147;SDS011;2592;48.140;7.614;2024-03-02T01:35:33;13.27;;;10.40;;
5147;SDS011;2592;48.140;7.614;2024-03-02T01:38:00;14.50;;;10.90;;
5147;SDS011;2592;48.140;7.614;2024-03-02T01:40:27;14.17;;;10.17;;
5147;SDS011;2592;48.140;7.614;2024-03-02T01:42:55;12.97;;;10.33;;
5147;SDS011;2592;48.140;7.614;2024-03-02T01:45:23;16.33;;;10.93;;
5147;SDS011;2592;48.140;7.614;2024-03-02T01:47:49;15.73;;;11.60;;
5147;SDS011;2592;48.140;7.614;2024-03-02T01:50:16;15.30;;;11.30;;
5147;SDS011;2592;48.140;7.614;2024-03-02T01:52:50;18.00;;;10.60;;
5147;SDS011;2592;48.140;7.614;2024-03-02T01:55:17;13.17;;;10.53;;
5147;SDS011;2592;48.140;7.614;2024-03-02T01:57:43;12.37;;;10.70;;
5147;SDS011;2592;48.140;7.614;2024-03-02T02:00:12;14.90;;;11.00;;
5147;SDS011;2592;48.140;7.614;2024-03-02T02:02:38;12.70;;;10.20;;
5147;SDS011;2592;48.140;7.614;2024-03-02T02:05:05;12.83;;;10.43;;
5147;SDS011;2592;48.140;7.614;2024-03-02T02:07:32;16.67;;;11.67;;
5147;SDS011;2592;48.140;7.614;2024-03-02T02:10:00;12.47;;;10.37;;
5147;SDS011;2592;48.140;7.614;2024-03-02T02:12:26;15.37;;;11.20;;
5147;SDS011;2592;48.140;7.614;2024-03-02T02:14:52;11.90;;;10.17;;
5147;SDS011;2592;48.140;7.614;2024-03-02T02:17:20;14.43;;;10.90;;
5147;SDS011;2592;48.140;7.614;2024-03-02T02:19:47;12.83;;;9.70;;
5147;SDS011;2592;48.140;7.614;2024-03-02T02:22:15;13.03;;;10.30;;
5147;SDS011;2592;48.140;7.614;2024-03-02T02:24:41;13.80;;;10.60;;
5147;SDS011;2592;48.140;7.614;2024-03-02T02:27:08;12.80;;;10.50;;
5147;SDS011;2592;48.140;7.614;2024-03-02T02:29:34;12.87;;;10.47;;
5147;SDS011;2592;48.140;7.614;2024-03-02T02:32:01;13.20;;;11.10;;
5147;SDS011;2592;48.140;7.614;2024-03-02T02:34:27;15.47;;;11.83;;
5147;SDS011;2592;48.140;7.614;2024-03-02T02:36:54;13.33;;;10.70;;
5147;SDS011;2592;48.140;7.614;2024-03-02T02:39:22;13.83;;;10.60;;
5147;SDS011;2592;48.140;7.614;2024-03-02T02:41:48;15.20;;;11.07;;
5147;SDS011;2592;48.140;7.614;2024-03-02T02:44:15;15.70;;;11.50;;
5147;SDS011;2592;48.140;7.614;2024-03-02T02:46:41;15.50;;;11.83;;
5147;SDS011;2592;48.140;7.614;2024-03-02T02:49:07;18.60;;;11.77;;
5147;SDS011;2592;48.140;7.614;2024-03-02T02:51:34;14.90;;;11.40;;
5147;SDS011;2592;48.140;7.614;2024-03-02T02:54:00;19.80;;;12.20;;
5147;SDS011;2592;48.140;7.614;2024-03-02T02:56:28;16.87;;;12.30;;
5147;SDS011;2592;48.140;7.614;2024-03-02T02:58:54;15.27;;;11.77;;
5147;SDS011;2592;48.140;7.614;2024-03-02T03:01:21;15.43;;;12.43;;
5147;SDS011;2592;48.140;7.614;2024-03-02T03:03:47;18.10;;;13.23;;
5147;SDS011;2592;48.140;7.614;2024-03-02T03:06:14;17.57;;;13.93;;
5147;SDS011;2592;48.140;7.614;2024-03-02T03:08:40;21.53;;;14.10;;
5147;SDS011;2592;48.140;7.614;2024-03-02T03:11:06;19.57;;;14.70;;
5147;SDS011;2592;48.140;7.614;2024-03-02T03:13:34;19.80;;;12.10;;
5147;SDS011;2592;48.140;7.614;2024-03-02T03:16:01;12.43;;;11.13;;
5147;SDS011;2592;48.140;7.614;2024-03-02T03:18:28;14.90;;;12.07;;
5147;SDS011;2592;48.140;7.614;2024-03-02T03:20:54;14.87;;;12.70;;
5147;SDS011;2592;48.140;7.614;2024-03-02T03:23:20;16.17;;;12.50;;
5147;SDS011;2592;48.140;7.614;2024-03-02T03:25:51;19.10;;;13.57;;
5147;SDS011;2592;48.140;7.614;2024-03-02T03:28:17;22.70;;;13.60;;
5147;SDS011;2592;48.140;7.614;2024-03-02T03:30:45;21.13;;;16.03;;
5147;SDS011;2592;48.140;7.614;2024-03-02T03:33:11;21.10;;;15.60;;
5147;SDS011;2592;48.140;7.614;2024-03-02T03:35:38;20.43;;;15.00;;
5147;SDS011;2592;48.140;7.614;2024-03-02T03:38:05;29.67;;;16.53;;
5147;SDS011;2592;48.140;7.614;2024-03-02T03:40:31;24.53;;;15.80;;
5147;SDS011;2592;48.140;7.614;2024-03-02T03:42:58;25.13;;;16.80;;
5147;SDS011;2592;48.140;7.614;2024-03-02T03:45:25;23.63;;;15.77;;
5147;SDS011;2592;48.140;7.614;2024-03-02T03:47:53;21.80;;;15.17;;
5147;SDS011;2592;48.140;7.614;2024-03-02T03:50:19;21.77;;;15.17;;
5147;SDS011;2592;48.140;7.614;2024-03-02T03:52:46;19.03;;;14.20;;
5147;SDS011;2592;48.140;7.614;2024-03-02T03:55:12;22.73;;;15.53;;
5147;SDS011;2592;48.140;7.614;2024-03-02T03:57:38;26.30;;;17.13;;
5147;SDS011;2592;48.140;7.614;2024-03-02T04:00:05;21.00;;;14.83;;
5147;SDS011;2592;48.140;7.614;2024-03-02T04:02:35;25.47;;;15.40;;
5147;SDS011;2592;48.140;7.614;2024-03-02T04:05:03;22.90;;;15.70;;
5147;SDS011;2592;48.140;7.614;2024-03-02T04:07:33;21.73;;;14.73;;
5147;SDS011;2592;48.140;7.614;2024-03-02T04:10:04;23.17;;;16.10;;
5147;SDS011;2592;48.140;7.614;2024-03-02T04:12:33;22.30;;;15.63;;
5147;SDS011;2592;48.140;7.614;2024-03-02T04:14:59;18.30;;;14.33;;
5147;SDS011;2592;48.140;7.614;2024-03-02T04:17:26;21.57;;;15.37;;
5147;SDS011;2592;48.140;7.614;2024-03-02T04:19:53;20.07;;;13.57;;
5147;SDS011;2592;48.140;7.614;2024-03-02T04:22:20;21.63;;;14.57;;
5147;SDS011;2592;48.140;7.614;2024-03-02T04:24:47;19.77;;;13.53;;
5147;SDS011;2592;48.140;7.614;2024-03-02T04:27:13;26.00;;;15.23;;
5147;SDS011;2592;48.140;7.614;2024-03-02T04:29:40;17.23;;;13.80;;
5147;SDS011;2592;48.140;7.614;2024-03-02T04:32:06;23.70;;;15.00;;
5147;SDS011;2592;48.140;7.614;2024-03-02T04:34:33;19.40;;;14.17;;
5147;SDS011;2592;48.140;7.614;2024-03-02T04:36:59;21.93;;;15.20;;
5147;SDS011;2592;48.140;7.614;2024-03-02T04:39:27;16.43;;;13.40;;
5147;SDS011;2592;48.140;7.614;2024-03-02T04:41:53;15.27;;;11.93;;
5147;SDS011;2592;48.140;7.614;2024-03-02T04:44:20;16.10;;;12.30;;
5147;SDS011;2592;48.140;7.614;2024-03-02T04:46:46;17.63;;;12.00;;
5147;SDS011;2592;48.140;7.614;2024-03-02T04:49:12;14.27;;;12.20;;
5147;SDS011;2592;48.140;7.614;2024-03-02T04:51:39;15.87;;;12.57;;
5147;SDS011;2592;48.140;7.614;2024-03-02T04:54:05;17.40;;;12.43;;
5147;SDS011;2592;48.140;7.614;2024-03-02T04:56:33;15.13;;;11.93;;
5147;SDS011;2592;48.140;7.614;2024-03-02T04:59:09;18.53;;;12.87;;
5147;SDS011;2592;48.140;7.614;2024-03-02T05:01:36;16.03;;;12.87;;
5147;SDS011;2592;48.140;7.614;2024-03-02T05:04:02;16.40;;;11.67;;
5147;SDS011;2592;48.140;7.614;2024-03-02T05:06:29;17.00;;;12.17;;
5147;SDS011;2592;48.140;7.614;2024-03-02T05:08:55;15.37;;;11.37;;
5147;SDS011;2592;48.140;7.614;2024-03-02T05:11:21;13.80;;;11.60;;
5147;SDS011;2592;48.140;7.614;2024-03-02T05:14:06;13.90;;;10.80;;
5147;SDS011;2592;48.140;7.614;2024-03-02T05:16:33;14.30;;;11.73;;
5147;SDS011;2592;48.140;7.614;2024-03-02T05:18:59;22.43;;;15.83;;
5147;SDS011;2592;48.140;7.614;2024-03-02T05:21:26;15.00;;;12.87;;
5147;SDS011;2592;48.140;7.614;2024-03-02T05:23:52;13.77;;;11.27;;
5147;SDS011;2592;48.140;7.614;2024-03-02T05:26:19;17.87;;;13.40;;
5147;SDS011;2592;48.140;7.614;2024-03-02T05:28:45;18.80;;;12.57;;
5147;SDS011;2592;48.140;7.614;2024-03-02T05:31:13;18.23;;;14.37;;
5147;SDS011;2592;48.140;7.614;2024-03-02T05:33:41;15.60;;;12.60;;
5147;SDS011;2592;48.140;7.614;2024-03-02T05:36:07;16.47;;;13.13;;
5147;SDS011;2592;48.140;7.614;2024-03-02T05:38:34;19.40;;;12.80;;
5147;SDS011;2592;48.140;7.614;2024-03-02T05:41:00;16.90;;;13.03;;
5147;SDS011;2592;48.140;7.614;2024-03-02T05:43:27;17.43;;;13.40;;
5147;SDS011;2592;48.140;7.614;2024-03-02T05:45:53;15.70;;;12.73;;
5147;SDS011;2592;48.140;7.614;2024-03-02T05:48:21;16.00;;;12.70;;
5147;SDS011;2592;48.140;7.614;2024-03-02T05:50:47;17.73;;;13.63;;
5147;SDS011;2592;48.140;7.614;2024-03-02T05:53:14;19.87;;;12.97;;
5147;SDS011;2592;48.140;7.614;2024-03-02T05:55:41;16.63;;;13.50;;
5147;SDS011;2592;48.140;7.614;2024-03-02T05:58:07;16.40;;;11.80;;
5147;SDS011;2592;48.140;7.614;2024-03-02T06:00:47;16.80;;;13.00;;
5147;SDS011;2592;48.140;7.614;2024-03-02T06:03:14;18.47;;;14.93;;
5147;SDS011;2592;48.140;7.614;2024-03-02T06:05:41;20.33;;;15.80;;
5147;SDS011;2592;48.140;7.614;2024-03-02T06:08:08;43.50;;;25.67;;
5147;SDS011;2592;48.140;7.614;2024-03-02T06:10:34;43.73;;;27.70;;
5147;SDS011;2592;48.140;7.614;2024-03-02T06:13:01;10.70;;;8.80;;
5147;SDS011;2592;48.140;7.614;2024-03-02T06:15:27;11.80;;;8.00;;
5147;SDS011;2592;48.140;7.614;2024-03-02T06:17:53;12.10;;;9.27;;
5147;SDS011;2592;48.140;7.614;2024-03-02T06:20:20;11.07;;;9.90;;
5147;SDS011;2592;48.140;7.614;2024-03-02T06:22:48;11.00;;;9.50;;
5147;SDS011;2592;48.140;7.614;2024-03-02T06:25:14;10.50;;;8.33;;
5147;SDS011;2592;48.140;7.614;2024-03-02T06:27:41;11.67;;;8.90;;
5147;SDS011;2592;48.140;7.614;2024-03-02T06:30:08;14.73;;;11.50;;
5147;SDS011;2592;48.140;7.614;2024-03-02T06:32:34;13.10;;;11.50;;
5147;SDS011;2592;48.140;7.614;2024-03-02T06:35:01;12.60;;;10.70;;
5147;SDS011;2592;48.140;7.614;2024-03-02T06:37:29;17.70;;;11.43;;
5147;SDS011;2592;48.140;7.614;2024-03-02T06:39:56;12.47;;;10.07;;
5147;SDS011;2592;48.140;7.614;2024-03-02T06:42:23;13.07;;;10.80;;
5147;SDS011;2592;48.140;7.614;2024-03-02T06:44:50;11.53;;;9.17;;
5147;SDS011;2592;48.140;7.614;2024-03-02T06:47:16;12.37;;;9.10;;
5147;SDS011;2592;48.140;7.614;2024-03-02T06:49:43;12.37;;;9.83;;
5147;SDS011;2592;48.140;7.614;2024-03-02T06:52:08;15.80;;;10.90;;
5147;SDS011;2592;48.140;7.614;2024-03-02T06:54:34;14.37;;;10.57;;
5147;SDS011;2592;48.140;7.614;2024-03-02T06:57:04;15.80;;;12.20;;
5147;SDS011;2592;48.140;7.614;2024-03-02T06:59:30;17.13;;;13.37;;
5147;SDS011;2592;48.140;7.614;2024-03-02T07:01:58;23.43;;;15.90;;
5147;SDS011;2592;48.140;7.614;2024-03-02T07:04:24;21.40;;;15.20;;
5147;SDS011;2592;48.140;7.614;2024-03-02T07:06:51;31.93;;;21.70;;
5147;SDS011;2592;48.140;7.614;2024-03-02T07:09:17;31.50;;;21.20;;
5147;SDS011;2592;48.140;7.614;2024-03-02T07:11:47;29.17;;;20.80;;
5147;SDS011;2592;48.140;7.614;2024-03-02T07:14:15;22.50;;;16.47;;
5147;SDS011;2592;48.140;7.614;2024-03-02T07:16:41;25.93;;;18.40;;
5147;SDS011;2592;48.140;7.614;2024-03-02T07:19:08;29.10;;;21.43;;
5147;SDS011;2592;48.140;7.614;2024-03-02T07:21:34;23.30;;;18.53;;
5147;SDS011;2592;48.140;7.614;2024-03-02T07:24:01;26.50;;;20.63;;
5147;SDS011;2592;48.140;7.614;2024-03-02T07:26:28;23.87;;;18.63;;
5147;SDS011;2592;48.140;7.614;2024-03-02T07:28:55;52.50;;;32.07;;
5147;SDS011;2592;48.140;7.614;2024-03-02T07:31:23;19.93;;;14.80;;
5147;SDS011;2592;48.140;7.614;2024-03-02T07:33:49;18.43;;;11.80;;
5147;SDS011;2592;48.140;7.614;2024-03-02T07:36:16;16.87;;;11.33;;
5147;SDS011;2592;48.140;7.614;2024-03-02T07:38:44;22.90;;;14.17;;
5147;SDS011;2592;48.140;7.614;2024-03-02T07:41:11;28.57;;;24.07;;
5147;SDS011;2592;48.140;7.614;2024-03-02T07:43:37;26.67;;;22.13;;
5147;SDS011;2592;48.140;7.614;2024-03-02T07:46:03;18.60;;;15.03;;
5147;SDS011;2592;48.140;7.614;2024-03-02T07:48:32;22.03;;;17.30;;
5147;SDS011;2592;48.140;7.614;2024-03-02T07:50:58;23.60;;;13.30;;
5147;SDS011;2592;48.140;7.614;2024-03-02T07:53:25;13.33;;;10.83;;
5147;SDS011;2592;48.140;7.614;2024-03-02T07:55:51;17.23;;;12.20;;
5147;SDS011;2592;48.140;7.614;2024-03-02T07:58:18;18.43;;;11.50;;
5147;SDS011;2592;48.140;7.614;2024-03-02T08:00:45;15.90;;;11.73;;
5147;SDS011;2592;48.140;7.614;2024-03-02T08:03:11;14.03;;;9.67;;
5147;SDS011;2592;48.140;7.614;2024-03-02T08:05:39;18.13;;;12.80;;
5147;SDS011;2592;48.140;7.614;2024-03-02T08:08:06;15.10;;;13.20;;
5147;SDS011;2592;48.140;7.614;2024-03-02T08:10:32;14.47;;;11.07;;
5147;SDS011;2592;48.140;7.614;2024-03-02T08:12:59;14.63;;;11.60;;
5147;SDS011;2592;48.140;7.614;2024-03-02T08:15:25;15.37;;;11.60;;
5147;SDS011;2592;48.140;7.614;2024-03-02T08:17:52;16.20;;;11.70;;
5147;SDS011;2592;48.140;7.614;2024-03-02T08:20:18;14.10;;;10.93;;
5147;SDS011;2592;48.140;7.614;2024-03-02T08:22:46;12.30;;;9.43;;
5147;SDS011;2592;48.140;7.614;2024-03-02T08:25:13;11.03;;;9.40;;
5147;SDS011;2592;48.140;7.614;2024-03-02T08:27:41;13.30;;;10.40;;
5147;SDS011;2592;48.140;7.614;2024-03-02T08:30:07;15.17;;;10.40;;
5147;SDS011;2592;48.140;7.614;2024-03-02T08:32:35;10.60;;;8.57;;
5147;SDS011;2592;48.140;7.614;2024-03-02T08:35:02;11.50;;;9.87;;
5147;SDS011;2592;48.140;7.614;2024-03-02T08:37:28;11.10;;;8.60;;
5147;SDS011;2592;48.140;7.614;2024-03-02T08:39:56;12.77;;;9.80;;
5147;SDS011;2592;48.140;7.614;2024-03-02T08:42:23;9.80;;;8.73;;
5147;SDS011;2592;48.140;7.614;2024-03-02T08:44:49;12.20;;;8.10;;
5147;SDS011;2592;48.140;7.614;2024-03-02T08:47:16;11.90;;;9.27;;
5147;SDS011;2592;48.140;7.614;2024-03-02T08:49:42;10.90;;;8.90;;
5147;SDS011;2592;48.140;7.614;2024-03-02T08:52:08;13.97;;;9.00;;
5147;SDS011;2592;48.140;7.614;2024-03-02T08:54:35;13.37;;;10.70;;
5147;SDS011;2592;48.140;7.614;2024-03-02T08:57:04;11.90;;;9.83;;
5147;SDS011;2592;48.140;7.614;2024-03-02T08:59:32;7.77;;;6.70;;
5147;SDS011;2592;48.140;7.614;2024-03-02T09:01:58;10.47;;;7.70;;
5147;SDS011;2592;48.140;7.614;2024-03-02T09:04:25;11.60;;;7.30;;
5147;SDS011;2592;48.140;7.614;2024-03-02T09:06:51;11.30;;;8.57;;
5147;SDS011;2592;48.140;7.614;2024-03-02T09:09:18;9.40;;;6.77;;
5147;SDS011;2592;48.140;7.614;2024-03-02T09:11:45;8.87;;;7.17;;
5147;SDS011;2592;48.140;7.614;2024-03-02T09:14:13;9.97;;;8.40;;
5147;SDS011;2592;48.140;7.614;2024-03-02T09:16:40;11.63;;;8.10;;
5147;SDS011;2592;48.140;7.614;2024-03-02T09:19:06;8.60;;;7.70;;
5147;SDS011;2592;48.140;7.614;2024-03-02T09:21:33;11.57;;;7.60;;
5147;SDS011;2592;48.140;7.614;2024-03-02T09:23:59;9.57;;;8.10;;
5147;SDS011;2592;48.140;7.614;2024-03-02T09:26:27;11.70;;;9.37;;
5147;SDS011;2592;48.140;7.614;2024-03-02T09:28:53;11.47;;;8.43;;
5147;SDS011;2592;48.140;7.614;2024-03-02T09:31:20;9.13;;;7.23;;
5147;SDS011;2592;48.140;7.614;2024-03-02T09:33:47;10.00;;;8.13;;
5147;SDS011;2592;48.140;7.614;2024-03-02T09:36:16;9.27;;;7.70;;
5147;SDS011;2592;48.140;7.614;2024-03-02T09:38:43;9.90;;;7.37;;
5147;SDS011;2592;48.140;7.614;2024-03-02T09:41:09;10.70;;;7.70;;
5147;SDS011;2592;48.140;7.614;2024-03-02T09:43:36;7.97;;;6.37;;
5147;SDS011;2592;48.140;7.614;2024-03-02T09:46:03;9.03;;;6.60;;
5147;SDS011;2592;48.140;7.614;2024-03-02T09:48:31;9.67;;;6.87;;
5147;SDS011;2592;48.140;7.614;2024-03-02T09:50:57;6.80;;;6.00;;
5147;SDS011;2592;48.140;7.614;2024-03-02T09:53:25;9.10;;;6.27;;
5147;SDS011;2592;48.140;7.614;2024-03-02T09:55:51;10.40;;;6.37;;
5147;SDS011;2592;48.140;7.614;2024-03-02T09:58:18;7.37;;;5.77;;
5147;SDS011;2592;48.140;7.614;2024-03-02T10:00:44;10.23;;;5.77;;
5147;SDS011;2592;48.140;7.614;2024-03-02T10:03:11;5.23;;;4.10;;
5147;SDS011;2592;48.140;7.614;2024-03-02T10:05:39;9.20;;;4.90;;
5147;SDS011;2592;48.140;7.614;2024-03-02T10:08:05;5.07;;;3.90;;
5147;SDS011;2592;48.140;7.614;2024-03-02T10:10:35;4.30;;;3.60;;
5147;SDS011;2592;48.140;7.614;2024-03-02T10:13:05;2.97;;;2.67;;
5147;SDS011;2592;48.140;7.614;2024-03-02T10:15:31;4.37;;;3.50;;
5147;SDS011;2592;48.140;7.614;2024-03-02T10:17:58;4.07;;;3.17;;
5147;SDS011;2592;48.140;7.614;2024-03-02T10:20:25;7.30;;;2.90;;
5147;SDS011;2592;48.140;7.614;2024-03-02T10:22:55;6.60;;;3.50;;
5147;SDS011;2592;48.140;7.614;2024-03-02T10:25:28;5.30;;;4.67;;
5147;SDS011;2592;48.140;7.614;2024-03-02T10:27:56;2.73;;;2.43;;
5147;SDS011;2592;48.140;7.614;2024-03-02T10:30:23;6.87;;;2.70;;
5147;SDS011;2592;48.140;7.614;2024-03-02T10:32:49;3.70;;;2.30;;
5147;SDS011;2592;48.140;7.614;2024-03-02T10:35:16;3.47;;;1.93;;
5147;SDS011;2592;48.140;7.614;2024-03-02T10:37:42;2.40;;;1.90;;
5147;SDS011;2592;48.140;7.614;2024-03-02T10:40:11;5.17;;;2.07;;
5147;SDS011;2592;48.140;7.614;2024-03-02T10:42:38;3.33;;;2.77;;
5147;SDS011;2592;48.140;7.614;2024-03-02T10:45:05;3.40;;;2.20;;
5147;SDS011;2592;48.140;7.614;2024-03-02T10:47:32;5.30;;;2.57;;
5147;SDS011;2592;48.140;7.614;2024-03-02T10:49:59;4.37;;;2.43;;
5147;SDS011;2592;48.140;7.614;2024-03-02T10:52:27;3.10;;;2.40;;
5147;SDS011;2592;48.140;7.614;2024-03-02T10:54:54;3.47;;;2.40;;
5147;SDS011;2592;48.140;7.614;2024-03-02T10:57:22;2.73;;;2.43;;
5147;SDS011;2592;48.140;7.614;2024-03-02T10:59:52;2.60;;;1.90;;
5147;SDS011;2592;48.140;7.614;2024-03-02T11:02:18;3.17;;;2.27;;
5147;SDS011;2592;48.140;7.614;2024-03-02T11:04:47;4.77;;;3.07;;
5147;SDS011;2592;48.140;7.614;2024-03-02T11:07:15;3.00;;;2.03;;
5147;SDS011;2592;48.140;7.614;2024-03-02T11:09:44;2.87;;;1.47;;
5147;SDS011;2592;48.140;7.614;2024-03-02T11:12:15;2.20;;;1.70;;
5147;SDS011;2592;48.140;7.614;2024-03-02T11:14:45;3.70;;;1.90;;
5147;SDS011;2592;48.140;7.614;2024-03-02T11:17:12;2.60;;;1.67;;
5147;SDS011;2592;48.140;7.614;2024-03-02T11:19:40;1.80;;;1.60;;
5147;SDS011;2592;48.140;7.614;2024-03-02T11:22:07;2.30;;;1.33;;
5147;SDS011;2592;48.140;7.614;2024-03-02T11:24:34;2.50;;;1.80;;
5147;SDS011;2592;48.140;7.614;2024-03-02T11:27:00;2.20;;;1.50;;
5147;SDS011;2592;48.140;7.614;2024-03-02T11:32:17;2.37;;;1.70;;
5147;SDS011;2592;48.140;7.614;2024-03-02T11:34:44;2.50;;;1.40;;
5147;SDS011;2592;48.140;7.614;2024-03-02T11:37:11;1.50;;;1.20;;
5147;SDS011;2592;48.140;7.614;2024-03-02T11:39:38;3.17;;;1.30;;
5147;SDS011;2592;48.140;7.614;2024-03-02T11:42:05;1.40;;;1.10;;
5147;SDS011;2592;48.140;7.614;2024-03-02T11:44:32;1.70;;;0.80;;
5147;SDS011;2592;48.140;7.614;2024-03-02T11:46:59;1.60;;;1.20;;
5147;SDS011;2592;48.140;7.614;2024-03-02T11:49:37;2.10;;;1.13;;
5147;SDS011;2592;48.140;7.614;2024-03-02T11:52:04;2.40;;;1.10;;
5147;SDS011;2592;48.140;7.614;2024-03-02T11:54:31;1.37;;;0.83;;
5147;SDS011;2592;48.140;7.614;2024-03-02T11:56:59;3.27;;;1.03;;
5147;SDS011;2592;48.140;7.614;2024-03-02T11:59:26;1.50;;;1.07;;
5147;SDS011;2592;48.140;7.614;2024-03-02T12:01:52;2.37;;;1.30;;
5147;SDS011;2592;48.140;7.614;2024-03-02T12:04:19;1.30;;;0.90;;
5147;SDS011;2592;48.140;7.614;2024-03-02T12:06:48;2.97;;;1.40;;
5147;SDS011;2592;48.140;7.614;2024-03-02T12:09:20;7.20;;;3.07;;
5147;SDS011;2592;48.140;7.614;2024-03-02T12:11:46;11.10;;;6.63;;
5147;SDS011;2592;48.140;7.614;2024-03-02T12:14:13;1.70;;;1.23;;
5147;SDS011;2592;48.140;7.614;2024-03-02T12:16:43;1.50;;;1.20;;
5147;SDS011;2592;48.140;7.614;2024-03-02T12:19:09;1.20;;;0.70;;
5147;SDS011;2592;48.140;7.614;2024-03-02T12:21:36;0.93;;;0.60;;
5147;SDS011;2592;48.140;7.614;2024-03-02T12:24:04;3.77;;;1.00;;
5147;SDS011;2592;48.140;7.614;2024-03-02T12:26:30;2.50;;;1.13;;
5147;SDS011;2592;48.140;7.614;2024-03-02T12:28:57;1.30;;;0.97;;
5147;SDS011;2592;48.140;7.614;2024-03-02T12:31:24;0.90;;;0.70;;
5147;SDS011;2592;48.140;7.614;2024-03-02T12:33:50;1.07;;;0.90;;
5147;SDS011;2592;48.140;7.614;2024-03-02T12:36:17;3.60;;;1.60;;
5147;SDS011;2592;48.140;7.614;2024-03-02T12:38:44;1.80;;;1.47;;
5147;SDS011;2592;48.140;7.614;2024-03-02T12:41:15;3.27;;;1.10;;
5147;SDS011;2592;48.140;7.614;2024-03-02T12:43:41;2.93;;;1.60;;
5147;SDS011;2592;48.140;7.614;2024-03-02T12:46:08;2.70;;;1.17;;
5147;SDS011;2592;48.140;7.614;2024-03-02T12:48:34;3.10;;;0.87;;
5147;SDS011;2592;48.140;7.614;2024-03-02T12:51:01;1.10;;;0.80;;
5147;SDS011;2592;48.140;7.614;2024-03-02T12:53:28;1.30;;;0.97;;
5147;SDS011;2592;48.140;7.614;2024-03-02T12:55:54;1.93;;;0.93;;
5147;SDS011;2592;48.140;7.614;2024-03-02T12:58:23;2.27;;;1.53;;
5147;SDS011;2592;48.140;7.614;2024-03-02T13:00:49;4.10;;;2.97;;
5147;SDS011;2592;48.140;7.614;2024-03-02T13:03:17;3.87;;;3.43;;
5147;SDS011;2592;48.140;7.614;2024-03-02T13:05:48;33.47;;;21.47;;
5147;SDS011;2592;48.140;7.614;2024-03-02T13:08:14;3.80;;;3.10;;
5147;SDS011;2592;48.140;7.614;2024-03-02T13:10:40;1.03;;;0.77;;
5147;SDS011;2592;48.140;7.614;2024-03-02T13:13:07;1.40;;;0.80;;
5147;SDS011;2592;48.140;7.614;2024-03-02T13:15:35;1.57;;;1.27;;
5147;SDS011;2592;48.140;7.614;2024-03-02T13:18:02;1.30;;;0.80;;
5147;SDS011;2592;48.140;7.614;2024-03-02T13:20:29;1.67;;;1.20;;
5147;SDS011;2592;48.140;7.614;2024-03-02T13:22:56;2.23;;;1.43;;
5147;SDS011;2592;48.140;7.614;2024-03-02T13:25:23;1.80;;;1.20;;
5147;SDS011;2592;48.140;7.614;2024-03-02T13:27:49;3.10;;;1.60;;
5147;SDS011;2592;48.140;7.614;2024-03-02T13:30:16;1.90;;;1.40;;
5147;SDS011;2592;48.140;7.614;2024-03-02T13:32:44;3.23;;;1.20;;
5147;SDS011;2592;48.140;7.614;2024-03-02T13:35:10;1.97;;;1.07;;
5147;SDS011;2592;48.140;7.614;2024-03-02T13:37:37;1.73;;;1.23;;
5147;SDS011;2592;48.140;7.614;2024-03-02T13:40:04;2.00;;;1.20;;
5147;SDS011;2592;48.140;7.614;2024-03-02T13:42:30;4.77;;;1.60;;
5147;SDS011;2592;48.140;7.614;2024-03-02T13:44:57;2.00;;;1.20;;
5147;SDS011;2592;48.140;7.614;2024-03-02T13:47:23;1.90;;;1.20;;
5147;SDS011;2592;48.140;7.614;2024-03-02T13:49:51;4.77;;;3.87;;
5147;SDS011;2592;48.140;7.614;2024-03-02T13:52:18;2.00;;;1.00;;
5147;SDS011;2592;48.140;7.614;2024-03-02T13:54:45;1.57;;;1.20;;
5147;SDS011;2592;48.140;7.614;2024-03-02T13:57:12;2.40;;;1.77;;
5147;SDS011;2592;48.140;7.614;2024-03-02T13:59:38;1.90;;;1.40;;
5147;SDS011;2592;48.140;7.614;2024-03-02T14:02:05;9.20;;;1.23;;
5147;SDS011;2592;48.140;7.614;2024-03-02T14:04:32;2.97;;;1.63;;
5147;SDS011;2592;48.140;7.614;2024-03-02T14:07:01;3.10;;;1.40;;
5147;SDS011;2592;48.140;7.614;2024-03-02T14:09:27;2.60;;;0.93;;
5147;SDS011;2592;48.140;7.614;2024-03-02T14:11:54;1.60;;;1.33;;
5147;SDS011;2592;48.140;7.614;2024-03-02T14:14:20;1.63;;;1.13;;
5147;SDS011;2592;48.140;7.614;2024-03-02T14:16:47;2.70;;;1.53;;
5147;SDS011;2592;48.140;7.614;2024-03-02T14:19:14;2.97;;;1.77;;
5147;SDS011;2592;48.140;7.614;2024-03-02T14:21:40;3.43;;;2.33;;
5147;SDS011;2592;48.140;7.614;2024-03-02T14:24:08;1.50;;;1.10;;
5147;SDS011;2592;48.140;7.614;2024-03-02T14:26:35;1.40;;;0.97;;
5147;SDS011;2592;48.140;7.614;2024-03-02T14:29:02;1.50;;;1.20;;
5147;SDS011;2592;48.140;7.614;2024-03-02T14:31:29;2.93;;;0.90;;
5147;SDS011;2592;48.140;7.614;2024-03-02T14:33:56;2.33;;;1.13;;
5147;SDS011;2592;48.140;7.614;2024-03-02T14:36:22;3.37;;;1.07;;
5147;SDS011;2592;48.140;7.614;2024-03-02T14:38:49;1.63;;;1.27;;
5147;SDS011;2592;48.140;7.614;2024-03-02T14:41:17;1.97;;;1.03;;
5147;SDS011;2592;48.140;7.614;2024-03-02T14:43:43;2.30;;;1.10;;
5147;SDS011;2592;48.140;7.614;2024-03-02T14:46:10;1.70;;;1.30;;
5147;SDS011;2592;48.140;7.614;2024-03-02T14:48:37;4.10;;;1.30;;
5147;SDS011;2592;48.140;7.614;2024-03-02T14:51:04;4.37;;;3.17;;
5147;SDS011;2592;48.140;7.614;2024-03-02T14:53:30;5.47;;;4.40;;
5147;SDS011;2592;48.140;7.614;2024-03-02T14:55:57;8.30;;;6.10;;
5147;SDS011;2592;48.140;7.614;2024-03-02T14:58:24;5.60;;;4.20;;
5147;SDS011;2592;48.140;7.614;2024-03-02T15:00:51;4.60;;;2.83;;
5147;SDS011;2592;48.140;7.614;2024-03-02T15:03:18;7.57;;;3.83;;
5147;SDS011;2592;48.140;7.614;2024-03-02T15:05:44;8.13;;;4.00;;